Time;durP1;ratioP1;P1;durP2;ratioP2;P2;SDS_P1;SDS_P2;PMS_P1;PMS_P2;Temp;Humidity;BMP_temperature;BMP_pressure;BME280_temperature;BME280_humidity;BME280_pressure;Samples;Min_cycle;Max_cycle;Signal;HPM_P1;HPM_P2
2022/05/28 00:00:07;;;;;;;8.30;2.40;;;;;;;16.08;48.71;99950.09;343400;28;1775;-72
2022/05/28 00:00:20;;;;;;;8.85;2.35;;;;;;;16.06;48.43;99944.94;342635;28;1592;-72
2022/05/28 00:00:33;;;;;;;9.02;2.25;;;;;;;16.08;48.68;99944.88;342326;28;1268;-72
2022/05/28 00:00:50;;;;;;;10.48;2.30;;;;;;;16.09;49.37;99947.38;342775;28;1020;-72
2022/05/28 00:01:04;;;;;;;10.15;2.45;;;;;;;16.09;50.27;99947.38;342257;28;1837;-70
2022/05/28 00:01:19;;;;;;;7.97;2.55;;;;;;;16.10;50.42;99943.00;342473;28;1059;-70
2022/05/28 00:01:31;;;;;;;8.45;2.45;;;;;;;16.10;50.27;99943.00;342485;28;1273;-71
2022/05/28 00:01:44;;;;;;;8.93;2.42;;;;;;;16.10;50.33;99943.84;342146;28;1187;-73
2022/05/28 00:01:56;;;;;;;8.73;2.30;;;;;;;16.10;49.54;99945.63;342473;28;1038;-71
2022/05/28 00:02:08;;;;;;;7.45;2.00;;;;;;;16.10;49.00;99948.25;342511;28;1046;-72
2022/05/28 00:02:21;;;;;;;7.47;2.20;;;;;;;16.09;49.34;99951.78;342810;28;1095;-71
2022/05/28 00:02:33;;;;;;;7.30;2.35;;;;;;;16.09;49.81;99944.75;342363;28;1246;-72
2022/05/28 00:02:45;;;;;;;7.57;2.38;;;;;;;16.07;50.41;99948.41;342518;28;1223;-72
2022/05/28 00:02:57;;;;;;;8.47;2.40;;;;;;;16.04;49.91;99944.16;342819;28;1589;-73
2022/05/28 00:03:09;;;;;;;8.38;2.35;;;;;;;16.06;50.01;99944.09;343139;28;1126;-73
2022/05/28 00:03:21;;;;;;;7.93;2.27;;;;;;;16.06;49.76;99946.72;343799;28;1272;-72
2022/05/28 00:03:34;;;;;;;7.00;2.20;;;;;;;16.07;49.18;99943.16;342818;28;1423;-72
2022/05/28 00:03:46;;;;;;;7.80;2.50;;;;;;;16.02;48.63;99945.13;341928;28;1661;-76
2022/05/28 00:03:59;;;;;;;10.30;2.58;;;;;;;16.00;48.64;99942.63;343076;28;1680;-71
2022/05/28 00:04:13;;;;;;;13.45;2.70;;;;;;;15.97;49.12;99938.34;342872;28;1257;-71
2022/05/28 00:04:25;;;;;;;11.23;2.55;;;;;;;15.94;48.58;99949.00;342248;28;1379;-71
2022/05/28 00:04:38;;;;;;;7.28;2.40;;;;;;;15.91;48.55;99946.53;343599;28;1259;-70
2022/05/28 00:04:50;;;;;;;6.70;2.25;;;;;;;15.92;48.76;99943.00;342967;28;1743;-70
2022/05/28 00:05:04;;;;;;;6.47;2.20;;;;;;;15.94;48.89;99945.56;343153;28;1732;-70
2022/05/28 00:05:16;;;;;;;7.85;2.15;;;;;;;15.94;49.25;99943.78;343317;28;1263;-70
2022/05/28 00:05:30;;;;;;;8.45;2.15;;;;;;;15.96;49.46;99941.91;342705;28;1390;-70
2022/05/28 00:05:42;;;;;;;8.70;2.17;;;;;;;15.92;48.78;99945.63;342122;28;1066;-71
2022/05/28 00:05:54;;;;;;;9.07;2.20;;;;;;;15.87;48.70;99942.38;341726;28;2113;-71
2022/05/28 00:06:18;;;;;;;9.38;2.20;;;;;;;15.85;49.00;99948.63;343077;28;1922;-70
2022/05/28 00:06:33;;;;;;;7.47;2.30;;;;;;;15.85;49.33;99944.22;343059;28;1468;-73
2022/05/28 00:06:46;;;;;;;6.65;2.30;;;;;;;15.86;49.88;99943.31;342492;28;1129;-71
2022/05/28 00:06:58;;;;;;;7.13;2.40;;;;;;;15.84;50.15;99942.53;342388;28;1209;-70
2022/05/28 00:07:11;;;;;;;6.30;2.30;;;;;;;15.84;50.79;99942.53;343048;28;1723;-70
2022/05/28 00:07:24;;;;;;;6.72;2.35;;;;;;;15.85;51.01;99948.63;342541;28;1811;-72
2022/05/28 00:07:36;;;;;;;7.30;2.30;;;;;;;15.85;51.02;99944.22;342208;28;1805;-72
2022/05/28 00:07:48;;;;;;;8.20;2.40;;;;;;;15.85;50.96;99944.22;342421;28;1672;-72
2022/05/28 00:08:00;;;;;;;7.13;2.42;;;;;;;15.87;50.63;99947.63;342616;28;1076;-71
2022/05/28 00:08:12;;;;;;;5.70;2.42;;;;;;;15.84;51.17;99947.78;342287;28;1079;-72
2022/05/28 00:08:25;;;;;;;6.78;2.22;;;;;;;15.85;50.30;99951.25;342603;28;1083;-73
2022/05/28 00:08:37;;;;;;;7.20;2.23;;;;;;;15.82;49.91;99947.00;342451;28;1231;-71
2022/05/28 00:08:50;;;;;;;5.82;2.05;;;;;;;15.83;49.77;99946.06;342638;28;1473;-72
2022/05/28 00:09:03;;;;;;;6.47;2.15;;;;;;;15.85;49.94;99946.00;342631;28;1043;-72
2022/05/28 00:09:17;;;;;;;6.45;2.17;;;;;;;15.87;50.40;99952.00;342551;28;1060;-72
2022/05/28 00:09:29;;;;;;;6.28;2.15;;;;;;;15.88;50.64;99949.31;343048;28;1239;-72
2022/05/28 00:09:41;;;;;;;6.43;2.08;;;;;;;15.88;50.51;99949.31;343559;28;1192;-72
2022/05/28 00:09:53;;;;;;;6.65;2.17;;;;;;;15.89;50.75;99952.78;342355;28;2222;-71
2022/05/28 00:10:05;;;;;;;7.18;2.13;;;;;;;15.88;51.04;99949.31;343586;28;1613;-71
2022/05/28 00:10:18;;;;;;;6.95;2.03;;;;;;;15.89;50.97;99950.16;342053;28;1804;-72
2022/05/28 00:10:33;;;;;;;6.63;1.83;;;;;;;15.86;50.27;99945.09;343488;28;1279;-72
2022/05/28 00:10:47;;;;;;;7.32;2.20;;;;;;;15.80;50.25;99941.00;343003;28;1623;-75
2022/05/28 00:10:59;;;;;;;8.68;2.35;;;;;;;15.77;49.58;99946.38;343251;28;1516;-72
2022/05/28 00:11:25;;;;;;;8.68;2.50;;;;;;;15.75;49.51;99949.09;342033;28;2088;-72
2022/05/28 00:11:41;;;;;;;9.05;2.78;;;;;;;15.74;49.47;99947.38;343899;28;1099;-72
2022/05/28 00:11:53;;;;;;;9.32;2.85;;;;;;;15.72;49.16;99949.22;342473;28;1877;-72
2022/05/28 00:12:06;;;;;;;10.88;2.63;;;;;;;15.72;49.75;99945.75;342515;28;1820;-72
2022/05/28 00:12:21;;;;;;;11.13;2.50;;;;;;;15.70;49.73;99955.44;342787;28;1723;-72
2022/05/28 00:12:33;;;;;;;9.52;2.60;;;;;;;15.71;49.56;99952.72;342188;28;1374;-72
2022/05/28 00:12:47;;;;;;;8.77;2.47;;;;;;;15.73;49.68;99950.06;342347;28;1851;-72
2022/05/28 00:12:58;;;;;;;7.45;2.20;;;;;;;15.71;49.50;99950.09;343360;28;1782;-72
2022/05/28 00:13:12;;;;;;;6.22;2.20;;;;;;;15.71;49.75;99951.88;342368;28;1108;-72
2022/05/28 00:13:24;;;;;;;6.13;2.60;;;;;;;15.66;49.63;99944.25;342467;28;1206;-72
2022/05/28 00:13:36;;;;;;;6.50;2.58;;;;;;;15.65;49.36;99946.94;342421;28;1075;-72
2022/05/28 00:13:50;;;;;;;7.53;2.75;;;;;;;15.66;49.49;99948.66;342946;28;1007;-72
2022/05/28 00:14:02;;;;;;;8.55;2.60;;;;;;;15.68;49.67;99962.53;342436;28;1631;-72
2022/05/28 00:14:14;;;;;;;9.25;2.65;;;;;;;15.64;50.06;99950.50;342191;28;1206;-72
2022/05/28 00:14:27;;;;;;;8.27;2.60;;;;;;;15.67;50.04;99950.34;339823;28;4108;-72
2022/05/28 00:14:39;;;;;;;7.22;2.45;;;;;;;15.67;50.13;99950.34;343209;28;1120;-72
2022/05/28 00:14:51;;;;;;;5.03;2.20;;;;;;;15.57;49.93;99950.81;341860;28;1843;-72
2022/05/28 00:15:05;;;;;;;5.90;2.30;;;;;;;15.52;49.18;99950.16;342814;28;1846;-71
2022/05/28 00:15:17;;;;;;;6.90;2.50;;;;;;;15.49;49.73;99952.94;343670;28;1258;-72
2022/05/28 00:15:29;;;;;;;6.88;2.45;;;;;;;15.49;49.44;99947.72;343017;28;1714;-72
2022/05/28 00:15:41;;;;;;;7.07;2.47;;;;;;;15.50;49.75;99948.56;342546;28;1198;-72
2022/05/28 00:15:55;;;;;;;8.90;2.47;;;;;;;15.47;50.44;99948.69;342331;28;1922;-72
2022/05/28 00:16:08;;;;;;;8.82;2.30;;;;;;;15.50;50.42;99949.38;343127;28;1173;-72
2022/05/28 00:16:21;;;;;;;6.93;2.35;;;;;;;15.51;49.95;99956.34;342898;28;1813;-72
2022/05/28 00:16:36;;;;;;;10.23;2.53;;;;;;;15.53;50.06;99953.63;342226;28;1204;-72
2022/05/28 00:16:48;;;;;;;13.90;2.60;;;;;;;15.52;50.49;99951.94;342066;28;968;-72
2022/05/28 00:17:00;;;;;;;11.40;2.58;;;;;;;15.49;50.06;99947.72;342094;28;1642;-72
2022/05/28 00:17:12;;;;;;;7.53;2.33;;;;;;;15.44;48.97;99949.69;342615;28;1322;-71
2022/05/28 00:17:25;;;;;;;7.35;2.33;;;;;;;15.43;49.26;99947.13;342012;28;1318;-70
2022/05/28 00:17:37;;;;;;;8.32;2.40;;;;;;;15.45;49.44;99954.00;342262;28;1852;-70
2022/05/28 00:17:51;;;;;;;5.70;2.30;;;;;;;15.43;49.01;99952.38;341999;28;1861;-72
2022/05/28 00:18:03;;;;;;;5.85;2.28;;;;;;;15.39;48.84;99951.66;343156;28;1761;-72
2022/05/28 00:18:16;;;;;;;8.35;2.47;;;;;;;15.31;48.08;99951.19;343839;28;1427;-72
2022/05/28 00:18:28;;;;;;;8.73;2.60;;;;;;;15.30;48.59;99952.13;342041;28;1302;-72
2022/05/28 00:18:40;;;;;;;7.88;2.42;;;;;;;15.32;48.57;99948.50;342301;28;1068;-72
2022/05/28 00:18:54;;;;;;;6.70;2.25;;;;;;;15.33;48.47;99947.59;342274;28;1671;-72
2022/05/28 00:19:06;;;;;;;7.60;2.30;;;;;;;15.34;48.61;99949.28;343023;28;1519;-72
2022/05/28 00:19:18;;;;;;;10.18;2.35;;;;;;;15.35;48.99;99951.00;342271;28;1059;-72
2022/05/28 00:19:30;;;;;;;11.65;2.40;;;;;;;15.40;48.79;99947.31;342308;28;1317;-71
2022/05/28 00:19:43;;;;;;;12.23;2.50;;;;;;;15.42;48.62;99948.91;342403;28;1099;-70
2022/05/28 00:19:55;;;;;;;9.85;2.40;;;;;;;15.41;48.65;99947.19;341898;28;1738;-70
2022/05/28 00:20:08;;;;;;;9.50;2.33;;;;;;;15.44;48.57;99954.09;343173;28;1821;-71
2022/05/28 00:20:20;;;;;;;11.25;2.58;;;;;;;15.38;48.68;99944.75;343407;28;1115;-73
2022/05/28 00:20:32;;;;;;;10.07;2.60;;;;;;;15.37;48.63;99953.50;342922;28;1543;-71
2022/05/28 00:20:45;;;;;;;9.30;2.47;;;;;;;15.40;48.58;99953.38;342382;28;1119;-71
2022/05/28 00:20:57;;;;;;;9.75;2.40;;;;;;;15.41;48.52;99952.44;342182;28;1300;-70
2022/05/28 00:21:11;;;;;;;10.50;2.55;;;;;;;15.43;48.18;99953.22;342475;28;1074;-70
2022/05/28 00:21:27;;;;;;;8.50;2.45;;;;;;;15.46;48.33;99953.09;342293;28;1236;-70
2022/05/28 00:21:39;;;;;;;5.85;2.20;;;;;;;15.45;48.71;99950.53;342578;28;1105;-72
2022/05/28 00:21:51;;;;;;;8.65;2.22;;;;;;;15.48;48.69;99953.84;341769;28;1867;-72
2022/05/28 00:22:03;;;;;;;9.20;2.25;;;;;;;15.51;49.27;99951.09;341938;28;1788;-72
2022/05/28 00:22:16;;;;;;;8.23;2.30;;;;;;;15.52;49.65;99950.16;342516;28;1712;-72
2022/05/28 00:22:28;;;;;;;8.90;2.28;;;;;;;15.54;49.28;99950.94;342340;28;1308;-72
2022/05/28 00:22:43;;;;;;;7.78;2.10;;;;;;;15.52;49.56;99952.78;343141;28;975;-72
2022/05/28 00:22:55;;;;;;;8.07;2.33;;;;;;;15.46;49.02;99947.84;342197;28;1007;-72
2022/05/28 00:23:07;;;;;;;8.88;2.53;;;;;;;15.42;48.29;99954.16;342181;28;1722;-72
2022/05/28 00:23:19;;;;;;;9.55;2.63;;;;;;;15.38;48.11;99953.44;342389;28;1905;-72
2022/05/28 00:23:31;;;;;;;9.40;2.40;;;;;;;15.36;47.84;99951.84;342533;28;1798;-72
2022/05/28 00:23:47;;;;;;;7.07;2.28;;;;;;;15.33;47.96;99951.97;342327;28;1111;-72
2022/05/28 00:23:59;;;;;;;7.50;2.35;;;;;;;15.26;48.06;99953.19;342491;28;2200;-72
2022/05/28 00:24:11;;;;;;;8.80;2.40;;;;;;;15.23;48.15;99950.69;342796;28;1892;-72
2022/05/28 00:24:23;;;;;;;9.32;2.35;;;;;;;15.23;48.16;99948.94;343505;28;1035;-72
2022/05/28 00:24:35;;;;;;;9.48;2.33;;;;;;;15.27;48.33;99952.25;343554;28;1067;-70
2022/05/28 00:24:47;;;;;;;9.43;2.53;;;;;;;15.25;48.81;99948.84;343159;28;1023;-71
2022/05/28 00:24:59;;;;;;;10.23;2.60;;;;;;;15.23;48.69;99950.69;342042;28;1613;-70
2022/05/28 00:25:15;;;;;;;10.02;2.67;;;;;;;15.25;48.45;99946.25;343576;28;1353;-71
2022/05/28 00:25:29;;;;;;;7.70;2.42;;;;;;;15.23;48.73;99945.47;342066;28;1611;-72
2022/05/28 00:25:41;;;;;;;7.32;2.30;;;;;;;15.21;48.89;99947.31;343324;28;1185;-72
2022/05/28 00:25:53;;;;;;;8.05;2.20;;;;;;;15.19;48.32;99944.75;342255;28;2340;-71
2022/05/28 00:26:06;;;;;;;9.68;2.28;;;;;;;15.20;48.38;99945.63;342581;28;1731;-73
2022/05/28 00:26:19;;;;;;;10.93;2.35;;;;;;;15.14;48.75;99952.84;342448;28;1256;-70
2022/05/28 00:26:31;;;;;;;10.18;2.38;;;;;;;15.12;49.50;99953.84;343056;28;1277;-71
2022/05/28 00:26:44;;;;;;;12.02;2.35;;;;;;;15.13;49.96;99950.28;343654;28;1335;-71
2022/05/28 00:26:56;;;;;;;11.45;2.50;;;;;;;15.18;49.17;99949.16;342232;28;2072;-71
2022/05/28 00:27:08;;;;;;;8.25;2.50;;;;;;;15.20;48.13;99953.47;343045;28;1793;-72
2022/05/28 00:27:19;;;;;;;7.78;2.42;;;;;;;15.18;48.27;99956.16;342754;28;1999;-72
2022/05/28 00:27:32;;;;;;;11.40;2.33;;;;;;;15.14;48.19;99950.22;343403;28;1065;-72
2022/05/28 00:27:44;;;;;;;11.32;2.42;;;;;;;15.11;48.52;99953.00;343520;28;1216;-72
2022/05/28 00:27:56;;;;;;;8.57;2.40;;;;;;;15.09;48.45;99954.81;342930;28;1675;-73
2022/05/28 00:28:08;;;;;;;9.25;2.30;;;;;;;15.09;48.44;99952.22;342041;28;1014;-75
2022/05/28 00:28:21;;;;;;;8.75;2.30;;;;;;;15.00;48.19;99949.16;342319;28;1064;-73
2022/05/28 00:28:33;;;;;;;8.95;2.40;;;;;;;14.91;47.84;99950.41;342334;28;1954;-75
2022/05/28 00:28:45;;;;;;;10.55;2.60;;;;;;;14.89;48.26;99952.25;343325;28;1582;-72
2022/05/28 00:28:58;;;;;;;10.40;2.55;;;;;;;14.93;48.75;99949.44;342240;28;1729;-74
2022/05/28 00:29:10;;;;;;;10.90;2.45;;;;;;;14.93;48.70;99948.56;342734;28;1687;-72
2022/05/28 00:29:22;;;;;;;10.57;2.50;;;;;;;14.91;48.40;99955.66;342248;28;1039;-72
2022/05/28 00:29:34;;;;;;;10.68;2.47;;;;;;;14.95;48.08;99954.59;343350;28;1559;-72
2022/05/28 00:29:48;;;;;;;12.57;2.42;;;;;;;14.91;48.33;99953.03;343436;28;1560;-73
2022/05/28 00:30:00;;;;;;;11.25;2.38;;;;;;;14.92;48.08;99949.50;342829;28;1725;-71
2022/05/28 00:30:15;;;;;;;9.43;2.42;;;;;;;14.92;48.18;99952.97;343416;28;1199;-71
2022/05/28 00:30:27;;;;;;;7.57;2.40;;;;;;;14.95;48.44;99951.97;342465;28;1534;-72
2022/05/28 00:30:39;;;;;;;7.57;2.40;;;;;;;14.99;48.34;99958.78;341941;28;1182;-72
2022/05/28 00:30:51;;;;;;;8.70;2.20;;;;;;;15.01;48.20;99945.63;341505;28;1733;-72
2022/05/28 00:31:04;;;;;;;10.30;2.33;;;;;;;15.01;48.06;99956.97;343415;28;1763;-70
2022/05/28 00:31:17;;;;;;;9.98;2.30;;;;;;;15.01;48.39;99951.72;342308;28;1061;-70
2022/05/28 00:31:29;;;;;;;7.97;2.20;;;;;;;15.03;48.09;99955.13;342538;28;1319;-71
2022/05/28 00:31:41;;;;;;;8.73;2.20;;;;;;;14.99;48.07;99948.31;343479;28;1255;-72
2022/05/28 00:31:53;;;;;;;9.38;2.50;;;;;;;14.98;48.04;99946.63;342349;28;1722;-72
2022/05/28 00:32:06;;;;;;;10.05;2.30;;;;;;;14.93;47.87;99951.19;340700;28;5785;-71
2022/05/28 00:32:18;;;;;;;11.85;2.20;;;;;;;14.93;47.88;99951.19;342173;28;1639;-71
2022/05/28 00:32:30;;;;;;;10.10;2.20;;;;;;;14.93;48.14;99944.22;342541;28;1189;-71
2022/05/28 00:32:42;;;;;;;9.60;2.50;;;;;;;14.95;48.08;99951.97;342718;28;1004;-72
2022/05/28 00:32:54;;;;;;;8.77;2.60;;;;;;;14.97;48.43;99944.94;341807;28;1986;-72
2022/05/28 00:33:06;;;;;;;11.68;2.65;;;;;;;14.91;48.66;99950.41;342715;28;1834;-72
2022/05/28 00:33:18;;;;;;;12.88;2.63;;;;;;;14.87;48.09;99954.09;342334;28;1344;-72
2022/05/28 00:33:31;;;;;;;11.67;2.70;;;;;;;14.92;47.98;99952.13;342913;28;1293;-72
2022/05/28 00:33:44;;;;;;;9.70;2.30;;;;;;;14.96;48.27;99948.44;343650;28;1059;-71
2022/05/28 00:33:56;;;;;;;8.60;2.30;;;;;;;14.99;48.24;99948.31;342261;28;1852;-72
2022/05/28 00:34:08;;;;;;;10.43;2.45;;;;;;;14.95;48.26;99946.75;343235;28;1820;-72
2022/05/28 00:34:21;;;;;;;12.52;2.63;;;;;;;14.93;48.16;99957.31;342218;28;1143;-72
2022/05/28 00:34:34;;;;;;;11.13;2.53;;;;;;;14.86;48.69;99952.41;342359;28;1300;-72
2022/05/28 00:34:48;;;;;;;9.23;2.50;;;;;;;14.84;49.12;99943.78;342129;28;1039;-72
2022/05/28 00:35:00;;;;;;;9.50;2.60;;;;;;;14.81;49.46;99949.13;343051;28;1691;-70
2022/05/28 00:35:15;;;;;;;11.15;2.60;;;;;;;14.85;48.85;99950.69;343125;28;1177;-71
2022/05/28 00:35:27;;;;;;;9.98;2.45;;;;;;;14.84;48.12;99949.00;343755;28;1357;-71
2022/05/28 00:35:40;;;;;;;7.20;2.30;;;;;;;14.87;48.09;99949.72;343190;28;1455;-72
2022/05/28 00:35:52;;;;;;;7.22;2.28;;;;;;;14.84;48.49;99946.41;341498;28;1879;-72
2022/05/28 00:36:09;;;;;;;8.20;2.13;;;;;;;14.86;48.40;99941.94;343627;28;1466;-72
2022/05/28 00:36:22;;;;;;;10.52;2.30;;;;;;;14.88;48.75;99947.97;342200;28;1057;-72
2022/05/28 00:36:34;;;;;;;9.63;2.30;;;;;;;14.91;48.98;99950.41;343482;28;1322;-71
2022/05/28 00:36:46;;;;;;;8.52;2.33;;;;;;;14.91;48.70;99951.28;342537;28;1761;-72
2022/05/28 00:36:57;;;;;;;10.27;2.30;;;;;;;14.89;48.77;99952.25;342269;28;1695;-71
2022/05/28 00:37:09;;;;;;;11.15;2.22;;;;;;;14.90;49.33;99948.72;342329;28;1043;-72
2022/05/28 00:37:22;;;;;;;9.80;2.33;;;;;;;14.91;49.46;99951.28;342494;28;1109;-72
2022/05/28 00:37:35;;;;;;;8.63;2.30;;;;;;;14.91;49.47;99945.19;342405;28;1083;-72
2022/05/28 00:37:47;;;;;;;7.53;2.08;;;;;;;14.89;48.38;99952.25;342335;28;1137;-72
2022/05/28 00:37:59;;;;;;;7.47;2.00;;;;;;;14.90;48.44;99944.34;342546;28;1591;-72
2022/05/28 00:38:11;;;;;;;7.65;2.00;;;;;;;14.87;48.24;99948.84;342713;28;1065;-71
2022/05/28 00:38:24;;;;;;;8.23;2.22;;;;;;;14.85;48.27;99945.47;342248;28;1344;-72
2022/05/28 00:38:40;;;;;;;10.90;2.58;;;;;;;14.81;48.09;99951.75;342509;28;1043;-72
2022/05/28 00:38:52;;;;;;;11.13;2.72;;;;;;;14.79;48.35;99946.63;341989;28;1813;-72
2022/05/28 00:39:04;;;;;;;9.35;2.55;;;;;;;14.78;48.15;99945.75;342524;28;1682;-72
2022/05/28 00:39:16;;;;;;;9.57;2.53;;;;;;;14.78;48.11;99945.75;343562;28;1083;-72
2022/05/28 00:39:28;;;;;;;9.15;2.42;;;;;;;14.81;48.68;99955.25;342665;28;1812;-72
2022/05/28 00:39:40;;;;;;;8.57;2.47;;;;;;;14.78;49.71;99956.22;342320;28;1762;-72
2022/05/28 00:39:52;;;;;;;10.00;2.50;;;;;;;14.82;49.14;99950.84;342797;28;1221;-72
2022/05/28 00:40:08;;;;;;;11.23;2.40;;;;;;;14.83;48.64;99953.41;342353;28;1119;-72
2022/05/28 00:40:23;;;;;;;10.65;2.33;;;;;;;14.78;48.53;99950.97;342306;28;1074;-72
2022/05/28 00:40:35;;;;;;;11.23;2.50;;;;;;;14.76;48.42;99952.81;343733;28;1072;-72
2022/05/28 00:40:49;;;;;;;10.75;2.40;;;;;;;14.75;48.42;99955.53;343497;28;1222;-72
2022/05/28 00:41:01;;;;;;;9.50;2.08;;;;;;;14.80;48.65;99952.69;342456;28;1651;-72
2022/05/28 00:41:14;;;;;;;9.05;2.00;;;;;;;14.81;48.60;99954.38;343279;28;1082;-72
2022/05/28 00:41:26;;;;;;;6.70;1.92;;;;;;;14.80;48.55;99958.75;343055;28;1299;-72
2022/05/28 00:41:38;;;;;;;7.78;2.00;;;;;;;14.78;48.34;99950.97;342285;28;1069;-72
2022/05/28 00:41:50;;;;;;;9.95;2.00;;;;;;;14.81;47.83;99951.75;341629;28;1747;-72
2022/05/28 00:42:03;;;;;;;10.25;2.10;;;;;;;14.81;48.06;99957.00;342741;28;2145;-72
2022/05/28 00:42:16;;;;;;;8.13;2.20;;;;;;;14.83;47.93;99947.31;342095;28;1837;-73
2022/05/28 00:42:29;;;;;;;10.27;2.20;;;;;;;14.83;48.87;99947.31;342686;28;1905;-71
2022/05/28 00:42:41;;;;;;;11.30;2.35;;;;;;;14.84;48.81;99946.41;342404;28;1073;-72
2022/05/28 00:43:00;;;;;;;10.63;2.30;;;;;;;14.83;48.69;99953.41;341936;28;1921;-71
2022/05/28 00:43:13;;;;;;;9.25;2.40;;;;;;;14.80;47.99;99952.69;342052;28;1852;-72
2022/05/28 00:43:27;;;;;;;9.45;2.40;;;;;;;14.76;47.97;99958.03;342321;28;1641;-72
2022/05/28 00:43:43;;;;;;;8.73;2.30;;;;;;;14.75;47.95;99956.38;342337;28;1024;-72
2022/05/28 00:43:55;;;;;;;7.53;2.20;;;;;;;14.69;48.24;99951.41;341728;28;1766;-72
2022/05/28 00:44:07;;;;;;;7.53;2.15;;;;;;;14.67;48.66;99957.59;342549;28;1852;-71
2022/05/28 00:44:19;;;;;;;9.07;2.42;;;;;;;14.67;49.11;99955.88;342138;28;1209;-71
2022/05/28 00:44:31;;;;;;;10.77;2.50;;;;;;;14.70;49.39;99947.84;343198;28;1230;-71
2022/05/28 00:44:43;;;;;;;11.77;2.35;;;;;;;14.74;49.58;99959.03;343720;28;1074;-70
2022/05/28 00:44:55;;;;;;;10.73;2.35;;;;;;;14.72;49.47;99948.63;342432;28;2055;-70
2022/05/28 00:45:10;;;;;;;11.85;2.13;;;;;;;14.70;49.83;99954.88;342852;28;1941;-71
2022/05/28 00:45:22;;;;;;;12.30;2.15;;;;;;;14.72;49.34;99953.88;342021;28;1844;-72
2022/05/28 00:45:34;;;;;;;12.35;2.22;;;;;;;14.73;48.88;99957.38;341905;28;1708;-72
2022/05/28 00:45:49;;;;;;;10.50;2.28;;;;;;;14.72;48.86;99953.88;342270;28;1297;-72
2022/05/28 00:46:05;;;;;;;10.68;2.38;;;;;;;14.71;48.83;99956.59;343341;28;1715;-72
2022/05/28 00:46:22;;;;;;;8.70;2.30;;;;;;;14.71;48.72;99957.41;341972;28;1026;-72
2022/05/28 00:46:34;;;;;;;8.40;2.25;;;;;;;14.74;49.19;99953.81;342301;28;1362;-72
2022/05/28 00:46:49;;;;;;;10.60;2.17;;;;;;;14.75;48.87;99964.22;342379;28;1096;-72
2022/05/28 00:47:02;;;;;;;9.63;2.13;;;;;;;14.74;48.39;99959.88;342819;28;2334;-72
2022/05/28 00:47:15;;;;;;;7.97;2.30;;;;;;;14.75;48.32;99955.53;342809;28;1086;-72
2022/05/28 00:47:27;;;;;;;9.60;2.33;;;;;;;14.76;48.13;99963.28;342648;28;1463;-73
2022/05/28 00:47:45;;;;;;;10.77;2.30;;;;;;;14.70;47.63;99958.31;343644;28;1016;-73
2022/05/28 00:48:00;;;;;;;8.23;2.20;;;;;;;14.74;47.97;99959.88;342467;28;1873;-72
2022/05/28 00:48:20;;;;;;;7.50;2.15;;;;;;;14.74;47.72;99954.66;343070;28;1122;-72
2022/05/28 00:48:34;;;;;;;8.55;2.30;;;;;;;14.76;48.02;99958.03;341774;28;2784;-70
2022/05/28 00:48:50;;;;;;;7.78;2.15;;;;;;;14.79;48.02;99964.94;342614;28;3169;-70
2022/05/28 00:49:06;;;;;;;7.10;2.20;;;;;;;14.78;48.24;99961.44;343473;28;1144;-71
2022/05/28 00:49:25;;;;;;;10.60;2.20;;;;;;;14.81;48.59;99959.59;341703;28;2041;-71
2022/05/28 00:49:38;;;;;;;11.05;2.10;;;;;;;14.82;48.55;99956.94;342502;28;1904;-71
2022/05/28 00:49:51;;;;;;;9.73;2.17;;;;;;;14.84;48.43;99967.34;342798;28;1835;-71
2022/05/28 00:50:04;;;;;;;8.45;2.30;;;;;;;14.85;48.81;99961.16;343262;28;1050;-72
2022/05/28 00:50:18;;;;;;;9.52;2.28;;;;;;;14.86;48.79;99962.88;343582;28;1326;-72
2022/05/28 00:50:34;;;;;;;8.23;2.10;;;;;;;14.86;49.27;99962.88;342296;28;1798;-71
2022/05/28 00:50:46;;;;;;;10.23;2.50;;;;;;;14.87;49.10;99964.56;342719;28;1803;-72
2022/05/28 00:51:11;;;;;;;10.57;2.42;;;;;;;14.91;48.66;99966.13;342328;28;1723;-71
2022/05/28 00:51:34;;;;;;;8.05;2.47;;;;;;;14.88;48.16;99961.03;342498;28;1102;-70
2022/05/28 00:51:50;;;;;;;7.40;2.30;;;;;;;14.58;48.11;99964.94;341908;28;1043;-72
2022/05/28 00:52:07;;;;;;;9.45;2.20;;;;;;;14.52;48.46;99956.50;342139;28;952;-72
2022/05/28 00:52:22;;;;;;;9.77;2.33;;;;;;;14.53;49.07;99963.44;343244;28;1804;-72
2022/05/28 00:52:34;;;;;;;8.48;2.40;;;;;;;14.56;49.26;99965.94;343337;28;1358;-72
2022/05/28 00:52:46;;;;;;;7.18;2.30;;;;;;;14.54;48.95;99965.13;342685;28;1755;-71
2022/05/28 00:52:58;;;;;;;8.85;2.33;;;;;;;14.57;48.92;99962.44;343429;28;1922;-71
2022/05/28 00:53:10;;;;;;;9.45;2.30;;;;;;;14.57;48.51;99963.25;342164;28;1362;-70
2022/05/28 00:53:24;;;;;;;10.57;2.30;;;;;;;14.60;48.65;99962.28;342436;28;1140;-70
2022/05/28 00:53:37;;;;;;;8.45;2.17;;;;;;;14.61;49.06;99969.22;342238;28;1259;-70
2022/05/28 00:53:50;;;;;;;9.90;2.20;;;;;;;14.61;48.92;99968.34;342338;28;1412;-71
2022/05/28 00:54:05;;;;;;;9.77;2.20;;;;;;;14.49;48.31;99965.34;342501;28;1698;-70
2022/05/28 00:54:17;;;;;;;8.57;2.20;;;;;;;14.53;48.55;99966.06;342290;28;1829;-71
2022/05/28 00:54:33;;;;;;;9.30;2.20;;;;;;;14.51;48.99;99962.66;343553;28;1453;-72
2022/05/28 00:54:47;;;;;;;9.95;2.20;;;;;;;14.52;48.96;99966.97;343695;28;1001;-71
2022/05/28 00:55:00;;;;;;;10.00;2.35;;;;;;;14.50;48.99;99971.41;343304;28;1430;-70
2022/05/28 00:55:13;;;;;;;10.73;2.47;;;;;;;14.47;49.09;99961.09;343656;28;1155;-71
2022/05/28 00:55:25;;;;;;;8.68;2.22;;;;;;;14.51;48.95;99963.50;343150;28;1348;-72
2022/05/28 00:55:37;;;;;;;7.28;2.22;;;;;;;14.47;48.58;99961.09;341990;28;1100;-73
2022/05/28 00:55:49;;;;;;;7.63;2.10;;;;;;;14.42;48.42;99968.28;341815;28;1621;-72
2022/05/28 00:56:04;;;;;;;9.43;2.17;;;;;;;14.42;48.66;99968.28;343366;28;1653;-72
2022/05/28 00:56:16;;;;;;;9.75;2.10;;;;;;;14.38;49.04;99968.41;342734;28;1046;-72
2022/05/28 00:56:29;;;;;;;9.93;2.15;;;;;;;14.38;48.81;99963.16;342929;28;1269;-72
2022/05/28 00:56:41;;;;;;;9.65;2.03;;;;;;;14.38;48.59;99965.78;343265;28;1063;-72
2022/05/28 00:56:53;;;;;;;10.63;2.30;;;;;;;14.38;49.09;99963.16;343073;28;2060;-73
2022/05/28 00:57:07;;;;;;;10.93;2.50;;;;;;;14.41;49.22;99961.34;341861;28;1759;-72
2022/05/28 00:57:21;;;;;;;9.68;2.40;;;;;;;14.44;48.83;99961.22;342446;28;1486;-71
2022/05/28 00:57:39;;;;;;;9.88;2.58;;;;;;;14.44;48.93;99966.44;342271;28;1019;-72
2022/05/28 00:57:51;;;;;;;9.15;2.40;;;;;;;14.48;48.79;99962.78;342336;28;1785;-72
2022/05/28 00:58:09;;;;;;;8.73;2.15;;;;;;;14.49;48.98;99964.50;342596;28;1052;-72
2022/05/28 00:58:21;;;;;;;8.68;2.15;;;;;;;14.47;48.70;99955.88;342306;28;1045;-72
2022/05/28 00:58:34;;;;;;;10.48;2.28;;;;;;;14.47;48.43;99958.47;343436;28;1191;-72
2022/05/28 00:58:46;;;;;;;10.88;2.33;;;;;;;14.44;48.52;99961.22;343334;28;1198;-74
2022/05/28 00:58:58;;;;;;;9.93;2.40;;;;;;;14.44;48.31;99956.00;342594;28;1708;-72
2022/05/28 00:59:10;;;;;;;9.10;2.20;;;;;;;14.46;48.28;99956.78;342705;28;1783;-72
2022/05/28 00:59:22;;;;;;;11.27;2.20;;;;;;;14.42;48.36;99963.91;342147;28;1037;-72
2022/05/28 00:59:35;;;;;;;11.13;2.05;;;;;;;14.34;48.72;99956.38;343344;28;1400;-72
2022/05/28 00:59:47;;;;;;;10.10;2.10;;;;;;;14.36;49.20;99966.78;343261;28;1055;-72
2022/05/28 00:59:59;;;;;;;9.20;2.20;;;;;;;14.33;49.35;99954.69;342138;28;2142;-72
2022/05/28 01:00:18;;;;;;;7.85;2.28;;;;;;;14.35;49.60;99963.31;342895;28;1633;-72
2022/05/28 01:00:30;;;;;;;9.50;2.22;;;;;;;14.39;49.47;99961.44;342398;28;1940;-71
2022/05/28 01:00:42;;;;;;;9.18;2.20;;;;;;;14.37;49.70;99961.47;343292;28;2155;-72
2022/05/28 01:00:55;;;;;;;8.00;1.90;;;;;;;14.38;49.45;99957.94;342654;28;2058;-72
2022/05/28 01:01:08;;;;;;;8.63;1.88;;;;;;;14.41;48.99;99961.34;342420;28;1757;-72
2022/05/28 01:01:25;;;;;;;8.05;2.05;;;;;;;14.43;48.65;99962.13;343685;28;1190;-72
2022/05/28 01:01:41;;;;;;;10.15;2.38;;;;;;;14.42;48.97;99960.44;342271;28;1099;-71
2022/05/28 01:01:59;;;;;;;9.88;2.40;;;;;;;14.38;48.93;99968.41;341873;28;1864;-72
2022/05/28 01:02:19;;;;;;;8.75;2.40;;;;;;;14.43;49.42;99959.50;342936;28;1828;-71
2022/05/28 01:02:48;;;;;;;10.85;2.72;;;;;;;14.37;48.98;99961.47;343583;28;1299;-71
2022/05/28 01:03:09;;;;;;;8.48;2.30;;;;;;;14.37;48.59;99964.09;343167;28;1802;-73
2022/05/28 01:03:21;;;;;;;7.03;1.88;;;;;;;14.34;48.25;99964.22;342807;28;1306;-71
2022/05/28 01:03:43;;;;;;;7.68;1.88;;;;;;;14.23;48.15;99958.63;343304;28;1263;-70
2022/05/28 01:04:21;;;;;;;10.93;2.30;;;;;;;14.22;49.23;99962.13;340636;28;4373;-72
2022/05/28 01:04:39;;;;;;;8.68;2.20;;;;;;;14.25;49.10;99967.25;342659;28;1354;-72